LNI923 WADD-WARR
Flight info
| Callsign | LNI923 |
|---|---|
| Flight time | 0h 56m |
| Altitude | 24000 |
| Route | OKANG |
| Aircraft | B739/M-SDE2E3FGHIRWXY/LB1 |
Departure
| Time | 2026-04-28 10:27 |
|---|---|
| Airport | Denpasar I Gusti Ngurah Rai International Airport (WADD) |
Arrival
| Time | 2026-04-28 11:23 |
|---|---|
| Airport | Juanda International Airport (WARR) |
| Time | Latitude | Longitude | Altitude | Speed | Heading |
|---|---|---|---|---|---|
| 2026-04-28 10:01 | -8.74420 | 115.16127 | 32 ft | 0 kts | 88° |
| 2026-04-28 10:20 | -8.74420 | 115.16124 | 32 ft | 3 kts | 88° |
| 2026-04-28 10:21 | -8.74420 | 115.16098 | 32 ft | 4 kts | 101° |
| 2026-04-28 10:21 | -8.74411 | 115.16073 | 31 ft | 4 kts | 129° |
| 2026-04-28 10:21 | -8.74393 | 115.16061 | 32 ft | 2 kts | 177° |
| 2026-04-28 10:23 | -8.74414 | 115.16062 | 32 ft | 5 kts | 177° |
| 2026-04-28 10:23 | -8.74461 | 115.16064 | 32 ft | 7 kts | 177° |
| 2026-04-28 10:24 | -8.74517 | 115.16067 | 32 ft | 10 kts | 177° |
| 2026-04-28 10:24 | -8.74606 | 115.16070 | 32 ft | 15 kts | 178° |
| 2026-04-28 10:24 | -8.74700 | 115.16042 | 32 ft | 15 kts | 242° |
| 2026-04-28 10:24 | -8.74711 | 115.15933 | 32 ft | 17 kts | 268° |
| 2026-04-28 10:25 | -8.74717 | 115.15802 | 32 ft | 20 kts | 268° |
| 2026-04-28 10:25 | -8.74723 | 115.15659 | 31 ft | 20 kts | 267° |
| 2026-04-28 10:25 | -8.74728 | 115.15520 | 31 ft | 19 kts | 268° |
| 2026-04-28 10:25 | -8.74763 | 115.15397 | 31 ft | 19 kts | 210° |
| 2026-04-28 10:26 | -8.74882 | 115.15416 | 28 ft | 19 kts | 128° |
| 2026-04-28 10:26 | -8.74891 | 115.15570 | 28 ft | 38 kts | 88° |
| 2026-04-28 10:26 | -8.74869 | 115.16117 | 28 ft | 115 kts | 87° |
| 2026-04-28 10:26 | -8.74829 | 115.17140 | 42 ft | 172 kts | 86° |
| 2026-04-28 10:27 | -8.74757 | 115.18390 | 743 ft | 172 kts | 88° |
| 2026-04-28 10:27 | -8.74669 | 115.19602 | 1502 ft | 180 kts | 86° |
| 2026-04-28 10:27 | -8.74587 | 115.20951 | 1836 ft | 205 kts | 86° |
| 2026-04-28 10:27 | -8.74352 | 115.22461 | 2016 ft | 230 kts | 65° |
| 2026-04-28 10:28 | -8.73216 | 115.23638 | 2350 ft | 247 kts | 26° |
| 2026-04-28 10:28 | -8.71463 | 115.23873 | 2714 ft | 267 kts | 348° |
| 2026-04-28 10:28 | -8.69832 | 115.22984 | 3487 ft | 270 kts | 319° |
| 2026-04-28 10:29 | -8.67371 | 115.20068 | 5039 ft | 280 kts | 307° |
| 2026-04-28 10:29 | -8.66213 | 115.18457 | 5827 ft | 282 kts | 307° |
| 2026-04-28 10:29 | -8.65038 | 115.16838 | 6542 ft | 288 kts | 307° |
| 2026-04-28 10:29 | -8.63847 | 115.15224 | 7232 ft | 291 kts | 308° |
| 2026-04-28 10:30 | -8.62610 | 115.13580 | 7945 ft | 295 kts | 308° |
| 2026-04-28 10:30 | -8.61347 | 115.11921 | 8639 ft | 299 kts | 309° |
| 2026-04-28 10:30 | -8.60064 | 115.10248 | 9337 ft | 303 kts | 309° |
| 2026-04-28 10:30 | -8.58757 | 115.08554 | 10018 ft | 307 kts | 309° |
| 2026-04-28 10:31 | -8.57456 | 115.06871 | 10686 ft | 308 kts | 309° |
| 2026-04-28 10:31 | -8.56099 | 115.05119 | 11005 ft | 326 kts | 309° |
| 2026-04-28 10:31 | -8.54667 | 115.03274 | 11445 ft | 336 kts | 309° |
| 2026-04-28 10:31 | -8.53232 | 115.01424 | 12073 ft | 339 kts | 309° |
| 2026-04-28 10:32 | -8.51758 | 114.99523 | 12655 ft | 345 kts | 309° |
| 2026-04-28 10:32 | -8.50269 | 114.97603 | 13243 ft | 349 kts | 309° |
| 2026-04-28 10:32 | -8.48755 | 114.95667 | 13867 ft | 352 kts | 310° |
| 2026-04-28 10:32 | -8.47190 | 114.93791 | 14449 ft | 353 kts | 311° |
| 2026-04-28 10:33 | -8.45577 | 114.91898 | 15049 ft | 354 kts | 311° |
| 2026-04-28 10:33 | -8.43961 | 114.89994 | 15632 ft | 356 kts | 311° |
| 2026-04-28 10:33 | -8.42367 | 114.88105 | 16192 ft | 358 kts | 311° |
| 2026-04-28 10:33 | -8.40741 | 114.86171 | 16762 ft | 360 kts | 311° |
| 2026-04-28 10:34 | -8.39109 | 114.84229 | 17329 ft | 362 kts | 311° |
| 2026-04-28 10:34 | -8.37467 | 114.82277 | 17887 ft | 364 kts | 311° |
| 2026-04-28 10:34 | -8.35820 | 114.80318 | 18388 ft | 367 kts | 311° |
| 2026-04-28 10:34 | -8.34165 | 114.78351 | 18842 ft | 369 kts | 311° |
| 2026-04-28 10:35 | -8.32509 | 114.76383 | 19284 ft | 372 kts | 311° |
| 2026-04-28 10:35 | -8.30825 | 114.74380 | 19734 ft | 374 kts | 311° |
| 2026-04-28 10:35 | -8.29131 | 114.72366 | 20168 ft | 377 kts | 311° |
| 2026-04-28 10:35 | -8.27425 | 114.70339 | 20626 ft | 379 kts | 311° |
| 2026-04-28 10:36 | -8.25740 | 114.68335 | 21075 ft | 381 kts | 311° |
| 2026-04-28 10:36 | -8.24016 | 114.66284 | 21520 ft | 383 kts | 311° |
| 2026-04-28 10:36 | -8.22269 | 114.64207 | 21943 ft | 386 kts | 311° |
| 2026-04-28 10:36 | -8.20527 | 114.62136 | 22370 ft | 388 kts | 311° |
| 2026-04-28 10:37 | -8.18796 | 114.60070 | 22805 ft | 391 kts | 311° |
| 2026-04-28 10:37 | -8.17030 | 114.57967 | 23227 ft | 393 kts | 311° |
| 2026-04-28 10:37 | -8.15254 | 114.55857 | 23601 ft | 395 kts | 311° |
| 2026-04-28 10:37 | -8.13465 | 114.53733 | 23858 ft | 399 kts | 311° |
| 2026-04-28 10:38 | -8.11640 | 114.51567 | 23859 ft | 408 kts | 311° |
| 2026-04-28 10:38 | -8.09799 | 114.49383 | 23884 ft | 416 kts | 311° |
| 2026-04-28 10:38 | -8.07902 | 114.47137 | 23890 ft | 423 kts | 311° |
| 2026-04-28 10:38 | -8.05972 | 114.44855 | 23888 ft | 429 kts | 311° |
| 2026-04-28 10:39 | -8.04021 | 114.42545 | 23889 ft | 435 kts | 311° |
| 2026-04-28 10:39 | -8.02065 | 114.40228 | 23883 ft | 438 kts | 311° |
| 2026-04-28 10:39 | -8.00092 | 114.37887 | 23879 ft | 436 kts | 311° |
| 2026-04-28 10:39 | -7.98128 | 114.35556 | 23878 ft | 434 kts | 312° |
| 2026-04-28 10:40 | -7.96194 | 114.33259 | 23875 ft | 433 kts | 311° |
| 2026-04-28 10:40 | -7.94241 | 114.30942 | 23873 ft | 433 kts | 311° |
| 2026-04-28 10:40 | -7.92283 | 114.28620 | 23879 ft | 434 kts | 311° |
| 2026-04-28 10:40 | -7.90322 | 114.26294 | 23882 ft | 434 kts | 311° |
| 2026-04-28 10:41 | -7.88359 | 114.23966 | 23874 ft | 435 kts | 311° |
| 2026-04-28 10:41 | -7.86418 | 114.21663 | 23873 ft | 436 kts | 311° |
| 2026-04-28 10:41 | -7.84451 | 114.19329 | 23874 ft | 437 kts | 311° |
| 2026-04-28 10:41 | -7.82473 | 114.16981 | 23873 ft | 437 kts | 311° |
| 2026-04-28 10:42 | -7.80501 | 114.14642 | 23870 ft | 438 kts | 311° |
| 2026-04-28 10:42 | -7.78528 | 114.12307 | 23877 ft | 438 kts | 311° |
| 2026-04-28 10:42 | -7.76733 | 114.09814 | 23864 ft | 439 kts | 299° |
| 2026-04-28 10:42 | -7.75537 | 114.06982 | 23863 ft | 440 kts | 287° |
| 2026-04-28 10:43 | -7.74948 | 114.03948 | 23849 ft | 441 kts | 275° |
| 2026-04-28 10:43 | -7.74806 | 114.00864 | 23869 ft | 441 kts | 273° |
| 2026-04-28 10:43 | -7.74706 | 113.97806 | 23862 ft | 441 kts | 272° |
| 2026-04-28 10:43 | -7.74607 | 113.94709 | 23860 ft | 441 kts | 272° |
| 2026-04-28 10:44 | -7.74498 | 113.91606 | 23857 ft | 441 kts | 273° |
| 2026-04-28 10:44 | -7.74376 | 113.88507 | 23861 ft | 441 kts | 273° |
| 2026-04-28 10:44 | -7.74248 | 113.85463 | 23858 ft | 441 kts | 273° |
| 2026-04-28 10:44 | -7.74113 | 113.82374 | 23856 ft | 440 kts | 273° |
| 2026-04-28 10:45 | -7.73975 | 113.79282 | 23858 ft | 440 kts | 273° |
| 2026-04-28 10:45 | -7.73837 | 113.76193 | 23856 ft | 440 kts | 273° |
| 2026-04-28 10:45 | -7.73701 | 113.73142 | 23857 ft | 439 kts | 273° |
| 2026-04-28 10:45 | -7.73563 | 113.70050 | 23859 ft | 439 kts | 273° |
| 2026-04-28 10:46 | -7.73426 | 113.66967 | 23858 ft | 439 kts | 273° |
| 2026-04-28 10:46 | -7.73291 | 113.63915 | 23857 ft | 440 kts | 273° |
| 2026-04-28 10:46 | -7.73154 | 113.60833 | 23860 ft | 440 kts | 273° |
| 2026-04-28 10:46 | -7.73015 | 113.57747 | 23857 ft | 440 kts | 273° |
| 2026-04-28 10:47 | -7.72849 | 113.54643 | 23851 ft | 440 kts | 276° |
| 2026-04-28 10:47 | -7.72324 | 113.51644 | 23852 ft | 439 kts | 285° |
| 2026-04-28 10:47 | -7.71544 | 113.48665 | 23853 ft | 439 kts | 286° |
| 2026-04-28 10:47 | -7.70736 | 113.45682 | 23745 ft | 441 kts | 286° |
| 2026-04-28 10:48 | -7.69930 | 113.42679 | 23239 ft | 442 kts | 286° |
| 2026-04-28 10:48 | -7.69147 | 113.39694 | 22747 ft | 438 kts | 285° |
| 2026-04-28 10:48 | -7.68392 | 113.36768 | 22198 ft | 434 kts | 285° |
| 2026-04-28 10:48 | -7.67641 | 113.33825 | 21654 ft | 430 kts | 285° |
| 2026-04-28 10:49 | -7.66897 | 113.30904 | 21100 ft | 426 kts | 285° |
| 2026-04-28 10:49 | -7.66159 | 113.28011 | 20572 ft | 422 kts | 286° |
| 2026-04-28 10:49 | -7.65429 | 113.25156 | 20032 ft | 419 kts | 285° |
| 2026-04-28 10:49 | -7.64796 | 113.22335 | 19511 ft | 417 kts | 283° |
| 2026-04-28 10:50 | -7.64232 | 113.19473 | 18999 ft | 414 kts | 282° |
| 2026-04-28 10:50 | -7.63877 | 113.17582 | 18668 ft | 412 kts | 282° |
| 2026-04-28 10:50 | -7.63168 | 113.13794 | 17965 ft | 409 kts | 282° |
| 2026-04-28 10:50 | -7.62633 | 113.10980 | 17379 ft | 406 kts | 282° |
| 2026-04-28 10:51 | -7.62103 | 113.08224 | 16813 ft | 404 kts | 282° |
| 2026-04-28 10:51 | -7.61565 | 113.05446 | 16257 ft | 402 kts | 282° |
| 2026-04-28 10:51 | -7.61025 | 113.02679 | 15709 ft | 399 kts | 282° |
| 2026-04-28 10:51 | -7.60490 | 112.99944 | 15163 ft | 397 kts | 282° |
| 2026-04-28 10:52 | -7.59956 | 112.97211 | 14641 ft | 395 kts | 281° |
| 2026-04-28 10:52 | -7.59424 | 112.94493 | 14115 ft | 393 kts | 281° |
| 2026-04-28 10:52 | -7.58902 | 112.91823 | 13602 ft | 392 kts | 281° |
| 2026-04-28 10:52 | -7.58377 | 112.89129 | 13029 ft | 390 kts | 281° |
| 2026-04-28 10:53 | -7.57854 | 112.86447 | 12453 ft | 388 kts | 281° |
| 2026-04-28 10:53 | -7.57329 | 112.83775 | 11901 ft | 386 kts | 282° |
| 2026-04-28 10:53 | -7.56816 | 112.81162 | 11358 ft | 384 kts | 282° |
| 2026-04-28 10:53 | -7.56301 | 112.78518 | 10819 ft | 382 kts | 282° |
| 2026-04-28 10:54 | -7.55790 | 112.75887 | 10288 ft | 380 kts | 282° |
| 2026-04-28 10:54 | -7.55285 | 112.73289 | 10057 ft | 369 kts | 282° |
| 2026-04-28 10:54 | -7.54809 | 112.70836 | 10061 ft | 352 kts | 282° |
| 2026-04-28 10:54 | -7.54348 | 112.68469 | 10062 ft | 336 kts | 282° |
| 2026-04-28 10:55 | -7.53904 | 112.66202 | 10058 ft | 320 kts | 282° |
| 2026-04-28 10:55 | -7.53484 | 112.64068 | 10062 ft | 306 kts | 282° |
| 2026-04-28 10:55 | -7.53081 | 112.62016 | 10050 ft | 290 kts | 282° |
| 2026-04-28 10:55 | -7.52692 | 112.60031 | 9694 ft | 287 kts | 282° |
| 2026-04-28 10:56 | -7.52304 | 112.58055 | 9273 ft | 285 kts | 282° |
| 2026-04-28 10:56 | -7.51924 | 112.56125 | 8858 ft | 282 kts | 282° |
| 2026-04-28 10:56 | -7.51546 | 112.54202 | 8543 ft | 277 kts | 282° |
| 2026-04-28 10:56 | -7.51173 | 112.52305 | 8192 ft | 274 kts | 282° |
| 2026-04-28 10:57 | -7.50804 | 112.50432 | 7861 ft | 271 kts | 282° |
| 2026-04-28 10:57 | -7.50437 | 112.48566 | 7525 ft | 268 kts | 282° |
| 2026-04-28 10:57 | -7.50197 | 112.47347 | 7307 ft | 267 kts | 282° |
| 2026-04-28 10:57 | -7.49720 | 112.44917 | 6865 ft | 263 kts | 282° |
| 2026-04-28 10:58 | -7.49369 | 112.43131 | 6547 ft | 261 kts | 282° |
| 2026-04-28 10:58 | -7.49017 | 112.41335 | 6192 ft | 261 kts | 281° |
| 2026-04-28 10:58 | -7.48783 | 112.40142 | 5958 ft | 260 kts | 282° |
| 2026-04-28 10:58 | -7.48431 | 112.38351 | 5592 ft | 259 kts | 282° |
| 2026-04-28 10:59 | -7.48081 | 112.36569 | 5237 ft | 258 kts | 282° |
| 2026-04-28 10:59 | -7.47736 | 112.34820 | 5021 ft | 258 kts | 282° |
| 2026-04-28 10:59 | -7.47383 | 112.33046 | 5008 ft | 257 kts | 284° |
| 2026-04-28 10:59 | -7.46627 | 112.31458 | 4988 ft | 250 kts | 316° |
| 2026-04-28 11:00 | -7.45175 | 112.30523 | 4987 ft | 250 kts | 344° |
| 2026-04-28 11:00 | -7.43454 | 112.30321 | 4862 ft | 249 kts | 8° |
| 2026-04-28 11:00 | -7.41747 | 112.30577 | 4747 ft | 249 kts | 11° |
| 2026-04-28 11:00 | -7.40049 | 112.30878 | 4627 ft | 251 kts | 12° |
| 2026-04-28 11:01 | -7.38331 | 112.31178 | 4489 ft | 250 kts | 12° |
| 2026-04-28 11:01 | -7.36612 | 112.31463 | 4361 ft | 248 kts | 12° |
| 2026-04-28 11:01 | -7.34920 | 112.31745 | 4226 ft | 249 kts | 12° |
| 2026-04-28 11:01 | -7.33206 | 112.32031 | 4073 ft | 248 kts | 12° |
| 2026-04-28 11:02 | -7.31600 | 112.32607 | 3911 ft | 243 kts | 39° |
| 2026-04-28 11:02 | -7.30584 | 112.33900 | 3784 ft | 237 kts | 70° |
| 2026-04-28 11:02 | -7.30285 | 112.35495 | 3719 ft | 230 kts | 93° |
| 2026-04-28 11:02 | -7.30497 | 112.37086 | 3681 ft | 230 kts | 101° |
| 2026-04-28 11:03 | -7.30828 | 112.38687 | 3622 ft | 235 kts | 102° |
| 2026-04-28 11:03 | -7.31176 | 112.40313 | 3558 ft | 239 kts | 102° |
| 2026-04-28 11:03 | -7.31519 | 112.41929 | 3490 ft | 239 kts | 102° |
| 2026-04-28 11:03 | -7.31861 | 112.43571 | 3393 ft | 237 kts | 102° |
| 2026-04-28 11:04 | -7.32195 | 112.45193 | 3325 ft | 235 kts | 102° |
| 2026-04-28 11:04 | -7.32536 | 112.46797 | 3247 ft | 232 kts | 101° |
| 2026-04-28 11:04 | -7.32855 | 112.48389 | 3154 ft | 231 kts | 103° |
| 2026-04-28 11:04 | -7.33241 | 112.49944 | 3051 ft | 233 kts | 103° |
| 2026-04-28 11:05 | -7.33591 | 112.51555 | 3014 ft | 237 kts | 101° |
| 2026-04-28 11:05 | -7.33885 | 112.53189 | 2983 ft | 235 kts | 100° |
| 2026-04-28 11:05 | -7.34143 | 112.54776 | 2979 ft | 229 kts | 99° |
| 2026-04-28 11:05 | -7.34390 | 112.56324 | 2987 ft | 217 kts | 99° |
| 2026-04-28 11:06 | -7.34621 | 112.57776 | 2986 ft | 205 kts | 100° |
| 2026-04-28 11:06 | -7.34845 | 112.59185 | 2973 ft | 202 kts | 100° |
| 2026-04-28 11:06 | -7.35070 | 112.60583 | 2990 ft | 201 kts | 100° |
| 2026-04-28 11:06 | -7.35294 | 112.61971 | 2857 ft | 201 kts | 100° |
| 2026-04-28 11:07 | -7.35514 | 112.63338 | 2627 ft | 195 kts | 100° |
| 2026-04-28 11:07 | -7.35728 | 112.64665 | 2397 ft | 188 kts | 100° |
| 2026-04-28 11:07 | -7.35932 | 112.65941 | 2139 ft | 179 kts | 100° |
| 2026-04-28 11:07 | -7.36124 | 112.67139 | 1947 ft | 171 kts | 98° |
| 2026-04-28 11:08 | -7.36315 | 112.68325 | 1715 ft | 173 kts | 98° |
| 2026-04-28 11:08 | -7.36503 | 112.69484 | 1486 ft | 164 kts | 98° |
| 2026-04-28 11:08 | -7.36675 | 112.70564 | 1291 ft | 158 kts | 99° |
| 2026-04-28 11:08 | -7.36865 | 112.71676 | 1062 ft | 156 kts | 97° |
| 2026-04-28 11:09 | -7.37032 | 112.72752 | 896 ft | 158 kts | 99° |
| 2026-04-28 11:09 | -7.37203 | 112.73837 | 743 ft | 153 kts | 99° |
| 2026-04-28 11:09 | -7.37372 | 112.74871 | 534 ft | 153 kts | 97° |
| 2026-04-28 11:09 | -7.37538 | 112.75916 | 327 ft | 145 kts | 98° |
| 2026-04-28 11:10 | -7.37728 | 112.77019 | 538 ft | 166 kts | 99° |
| 2026-04-28 11:10 | -7.37927 | 112.78208 | 1201 ft | 178 kts | 100° |
| 2026-04-28 11:10 | -7.38149 | 112.79424 | 2096 ft | 177 kts | 101° |
| 2026-04-28 11:10 | -7.38384 | 112.80661 | 2865 ft | 180 kts | 101° |
| 2026-04-28 11:11 | -7.38632 | 112.81970 | 3364 ft | 202 kts | 102° |
| 2026-04-28 11:11 | -7.38949 | 112.83426 | 3617 ft | 226 kts | 103° |
| 2026-04-28 11:11 | -7.39309 | 112.85057 | 3563 ft | 242 kts | 103° |
| 2026-04-28 11:11 | -7.39676 | 112.86739 | 3649 ft | 252 kts | 102° |
| 2026-04-28 11:12 | -7.40010 | 112.88519 | 3559 ft | 259 kts | 101° |
| 2026-04-28 11:12 | -7.40321 | 112.90283 | 3499 ft | 251 kts | 101° |
| 2026-04-28 11:12 | -7.40621 | 112.91972 | 3485 ft | 245 kts | 101° |
| 2026-04-28 11:12 | -7.40925 | 112.93642 | 3493 ft | 240 kts | 101° |
| 2026-04-28 11:13 | -7.41245 | 112.95288 | 3494 ft | 239 kts | 102° |
| 2026-04-28 11:13 | -7.41572 | 112.96933 | 3491 ft | 240 kts | 97° |
| 2026-04-28 11:13 | -7.41235 | 112.98578 | 3519 ft | 254 kts | 58° |
| 2026-04-28 11:13 | -7.39951 | 112.99876 | 3490 ft | 267 kts | 33° |
| 2026-04-28 11:14 | -7.38203 | 113.00502 | 3488 ft | 269 kts | 6° |
| 2026-04-28 11:14 | -7.36384 | 113.00251 | 3489 ft | 271 kts | 338° |
| 2026-04-28 11:14 | -7.34890 | 112.99114 | 3479 ft | 271 kts | 306° |
| 2026-04-28 11:14 | -7.34099 | 112.97370 | 3515 ft | 279 kts | 286° |
| 2026-04-28 11:15 | -7.33657 | 112.95473 | 3493 ft | 281 kts | 281° |
| 2026-04-28 11:15 | -7.33298 | 112.93545 | 3482 ft | 278 kts | 280° |
| 2026-04-28 11:15 | -7.32952 | 112.91628 | 3478 ft | 276 kts | 280° |
| 2026-04-28 11:15 | -7.32609 | 112.89762 | 3463 ft | 263 kts | 280° |
| 2026-04-28 11:16 | -7.32281 | 112.88028 | 3477 ft | 248 kts | 281° |
| 2026-04-28 11:16 | -7.31951 | 112.86320 | 3519 ft | 248 kts | 281° |
| 2026-04-28 11:16 | -7.31620 | 112.84627 | 3361 ft | 244 kts | 281° |
| 2026-04-28 11:16 | -7.31291 | 112.82964 | 3196 ft | 237 kts | 281° |
| 2026-04-28 11:17 | -7.30975 | 112.81368 | 3023 ft | 234 kts | 281° |
| 2026-04-28 11:17 | -7.30660 | 112.79787 | 2857 ft | 226 kts | 281° |
| 2026-04-28 11:17 | -7.30355 | 112.78266 | 2701 ft | 215 kts | 281° |
| 2026-04-28 11:17 | -7.30066 | 112.76832 | 2544 ft | 202 kts | 281° |
| 2026-04-28 11:18 | -7.29795 | 112.75478 | 2404 ft | 195 kts | 281° |
| 2026-04-28 11:18 | -7.29530 | 112.74162 | 2294 ft | 190 kts | 281° |
| 2026-04-28 11:18 | -7.29273 | 112.72883 | 2187 ft | 184 kts | 282° |
| 2026-04-28 11:18 | -7.29014 | 112.71600 | 2091 ft | 188 kts | 282° |
| 2026-04-28 11:19 | -7.28758 | 112.70318 | 1993 ft | 184 kts | 282° |
| 2026-04-28 11:19 | -7.28521 | 112.69054 | 1989 ft | 184 kts | 273° |
| 2026-04-28 11:19 | -7.28909 | 112.67898 | 2000 ft | 181 kts | 220° |
| 2026-04-28 11:19 | -7.30038 | 112.67441 | 2005 ft | 177 kts | 179° |
| 2026-04-28 11:20 | -7.31265 | 112.67415 | 2003 ft | 176 kts | 180° |
| 2026-04-28 11:20 | -7.32492 | 112.67374 | 1999 ft | 176 kts | 180° |
| 2026-04-28 11:20 | -7.33705 | 112.67331 | 1996 ft | 175 kts | 181° |
| 2026-04-28 11:20 | -7.34929 | 112.67313 | 1932 ft | 176 kts | 173° |
| 2026-04-28 11:21 | -7.35917 | 112.67877 | 1729 ft | 157 kts | 115° |
| 2026-04-28 11:21 | -7.36244 | 112.68934 | 1622 ft | 166 kts | 105° |
| 2026-04-28 11:21 | -7.36549 | 112.70039 | 1406 ft | 160 kts | 103° |
| 2026-04-28 11:21 | -7.36764 | 112.71121 | 1212 ft | 156 kts | 100° |
| 2026-04-28 11:22 | -7.36939 | 112.72209 | 970 ft | 157 kts | 98° |
| 2026-04-28 11:22 | -7.37115 | 112.73305 | 818 ft | 155 kts | 100° |
| 2026-04-28 11:22 | -7.37285 | 112.74362 | 596 ft | 151 kts | 98° |
| 2026-04-28 11:22 | -7.37468 | 112.75432 | 396 ft | 154 kts | 97° |
| 2026-04-28 11:23 | -7.37633 | 112.76486 | 239 ft | 156 kts | 98° |
| 2026-04-28 11:23 | -7.37808 | 112.77565 | 32 ft | 154 kts | 98° |
| 2026-04-28 11:23 | -7.37958 | 112.78528 | 8 ft | 120 kts | 99° |
| 2026-04-28 11:23 | -7.38047 | 112.79086 | 10 ft | 39 kts | 99° |
| 2026-04-28 11:24 | -7.38009 | 112.79328 | 8 ft | 18 kts | 68° |
| 2026-04-28 11:24 | -7.37945 | 112.79411 | 8 ft | 15 kts | 16° |
| 2026-04-28 11:24 | -7.37844 | 112.79425 | 8 ft | 14 kts | 9° |
| 2026-04-28 11:24 | -7.37748 | 112.79441 | 8 ft | 14 kts | 7° |
| 2026-04-28 11:25 | -7.37678 | 112.79425 | 8 ft | 9 kts | 298° |
| 2026-04-28 11:25 | -7.37672 | 112.79410 | 8 ft | 0 kts | 291° |
| 2026-04-28 11:25 | -7.37666 | 112.79402 | 9 ft | 3 kts | 324° |
| 2026-04-28 11:25 | -7.37636 | 112.79400 | 8 ft | 6 kts | 4° |
| 2026-04-28 11:26 | -7.37594 | 112.79406 | 9 ft | 4 kts | 9° |
| 2026-04-28 11:26 | -7.37584 | 112.79408 | 8 ft | 1 kts | 9° |
| 2026-04-28 11:26 | -7.37583 | 112.79408 | 8 ft | 0 kts | 9° |